sensor_id;sensor_type;location;lat;lon;timestamp;P1;durP1;ratioP1;P2;durP2;ratioP2
16510;SDS011;8368;48.772;8.754;2024-03-08T00:00:40;35.40;;;17.13;;
16510;SDS011;8368;48.772;8.754;2024-03-08T00:03:07;35.63;;;17.10;;
16510;SDS011;8368;48.772;8.754;2024-03-08T00:05:35;38.60;;;17.13;;
16510;SDS011;8368;48.772;8.754;2024-03-08T00:08:00;33.80;;;16.50;;
16510;SDS011;8368;48.772;8.754;2024-03-08T00:10:26;37.40;;;16.90;;
16510;SDS011;8368;48.772;8.754;2024-03-08T00:12:54;33.57;;;16.33;;
16510;SDS011;8368;48.772;8.754;2024-03-08T00:15:20;35.43;;;16.47;;
16510;SDS011;8368;48.772;8.754;2024-03-08T00:17:47;36.73;;;17.00;;
16510;SDS011;8368;48.772;8.754;2024-03-08T00:20:13;32.50;;;16.63;;
16510;SDS011;8368;48.772;8.754;2024-03-08T00:22:39;37.70;;;16.37;;
16510;SDS011;8368;48.772;8.754;2024-03-08T00:25:06;32.57;;;16.07;;
16510;SDS011;8368;48.772;8.754;2024-03-08T00:27:35;38.23;;;16.90;;
16510;SDS011;8368;48.772;8.754;2024-03-08T00:30:01;33.97;;;16.27;;
16510;SDS011;8368;48.772;8.754;2024-03-08T00:32:27;34.60;;;16.33;;
16510;SDS011;8368;48.772;8.754;2024-03-08T00:34:56;34.47;;;16.57;;
16510;SDS011;8368;48.772;8.754;2024-03-08T00:37:21;33.33;;;16.00;;
16510;SDS011;8368;48.772;8.754;2024-03-08T00:39:47;33.80;;;16.67;;
16510;SDS011;8368;48.772;8.754;2024-03-08T00:42:17;34.83;;;15.87;;
16510;SDS011;8368;48.772;8.754;2024-03-08T00:44:47;33.23;;;16.87;;
16510;SDS011;8368;48.772;8.754;2024-03-08T00:47:16;36.27;;;16.33;;
16510;SDS011;8368;48.772;8.754;2024-03-08T00:49:41;34.00;;;17.60;;
16510;SDS011;8368;48.772;8.754;2024-03-08T00:52:07;34.37;;;16.63;;
16510;SDS011;8368;48.772;8.754;2024-03-08T00:54:34;34.63;;;15.60;;
16510;SDS011;8368;48.772;8.754;2024-03-08T00:57:01;37.00;;;17.10;;
16510;SDS011;8368;48.772;8.754;2024-03-08T00:59:27;33.47;;;15.37;;
16510;SDS011;8368;48.772;8.754;2024-03-08T01:01:53;37.13;;;17.43;;
16510;SDS011;8368;48.772;8.754;2024-03-08T01:04:19;33.67;;;15.67;;
16510;SDS011;8368;48.772;8.754;2024-03-08T01:06:46;36.40;;;16.40;;
16510;SDS011;8368;48.772;8.754;2024-03-08T01:09:12;35.03;;;16.03;;
16510;SDS011;8368;48.772;8.754;2024-03-08T01:11:38;33.07;;;16.30;;
16510;SDS011;8368;48.772;8.754;2024-03-08T01:14:03;36.10;;;16.37;;
16510;SDS011;8368;48.772;8.754;2024-03-08T01:16:29;35.20;;;16.53;;
16510;SDS011;8368;48.772;8.754;2024-03-08T01:18:55;39.03;;;16.80;;
16510;SDS011;8368;48.772;8.754;2024-03-08T01:21:20;40.27;;;17.13;;
16510;SDS011;8368;48.772;8.754;2024-03-08T01:23:47;35.63;;;16.83;;
16510;SDS011;8368;48.772;8.754;2024-03-08T01:26:12;39.27;;;17.87;;
16510;SDS011;8368;48.772;8.754;2024-03-08T01:28:40;33.27;;;16.40;;
16510;SDS011;8368;48.772;8.754;2024-03-08T01:31:05;38.03;;;16.47;;
16510;SDS011;8368;48.772;8.754;2024-03-08T01:33:31;36.83;;;16.60;;
16510;SDS011;8368;48.772;8.754;2024-03-08T01:35:57;38.00;;;17.40;;
16510;SDS011;8368;48.772;8.754;2024-03-08T01:38:23;36.80;;;16.57;;
16510;SDS011;8368;48.772;8.754;2024-03-08T01:40:49;38.73;;;17.70;;
16510;SDS011;8368;48.772;8.754;2024-03-08T01:43:21;39.90;;;16.97;;
16510;SDS011;8368;48.772;8.754;2024-03-08T01:45:51;35.67;;;16.50;;
16510;SDS011;8368;48.772;8.754;2024-03-08T01:48:18;33.33;;;16.33;;
16510;SDS011;8368;48.772;8.754;2024-03-08T01:50:44;34.23;;;16.60;;
16510;SDS011;8368;48.772;8.754;2024-03-08T01:53:10;40.37;;;16.53;;
16510;SDS011;8368;48.772;8.754;2024-03-08T01:55:37;35.63;;;15.50;;
16510;SDS011;8368;48.772;8.754;2024-03-08T01:58:06;30.73;;;15.60;;
16510;SDS011;8368;48.772;8.754;2024-03-08T02:00:35;36.13;;;16.13;;
16510;SDS011;8368;48.772;8.754;2024-03-08T02:03:01;34.07;;;16.07;;
16510;SDS011;8368;48.772;8.754;2024-03-08T02:05:27;36.70;;;17.03;;
16510;SDS011;8368;48.772;8.754;2024-03-08T02:07:53;33.03;;;16.13;;
16510;SDS011;8368;48.772;8.754;2024-03-08T02:10:19;34.77;;;15.30;;
16510;SDS011;8368;48.772;8.754;2024-03-08T02:12:46;33.40;;;16.37;;
16510;SDS011;8368;48.772;8.754;2024-03-08T02:15:12;32.33;;;16.00;;
16510;SDS011;8368;48.772;8.754;2024-03-08T02:17:38;33.37;;;14.77;;
16510;SDS011;8368;48.772;8.754;2024-03-08T02:20:04;31.90;;;15.13;;
16510;SDS011;8368;48.772;8.754;2024-03-08T02:22:30;32.70;;;15.83;;
16510;SDS011;8368;48.772;8.754;2024-03-08T02:24:57;32.57;;;15.37;;
16510;SDS011;8368;48.772;8.754;2024-03-08T02:27:26;31.97;;;15.60;;
16510;SDS011;8368;48.772;8.754;2024-03-08T02:29:53;37.40;;;15.20;;
16510;SDS011;8368;48.772;8.754;2024-03-08T02:32:21;30.90;;;14.43;;
16510;SDS011;8368;48.772;8.754;2024-03-08T02:34:47;35.30;;;15.83;;
16510;SDS011;8368;48.772;8.754;2024-03-08T02:37:13;35.60;;;16.57;;
16510;SDS011;8368;48.772;8.754;2024-03-08T02:39:38;40.00;;;16.27;;
16510;SDS011;8368;48.772;8.754;2024-03-08T02:42:04;38.93;;;16.37;;
16510;SDS011;8368;48.772;8.754;2024-03-08T02:44:29;40.60;;;17.93;;
16510;SDS011;8368;48.772;8.754;2024-03-08T02:46:55;37.90;;;16.47;;
16510;SDS011;8368;48.772;8.754;2024-03-08T02:49:21;39.00;;;16.17;;
16510;SDS011;8368;48.772;8.754;2024-03-08T02:51:46;41.07;;;16.23;;
16510;SDS011;8368;48.772;8.754;2024-03-08T02:54:12;37.30;;;16.43;;
16510;SDS011;8368;48.772;8.754;2024-03-08T02:56:37;32.93;;;16.07;;
16510;SDS011;8368;48.772;8.754;2024-03-08T02:59:03;40.63;;;16.37;;
16510;SDS011;8368;48.772;8.754;2024-03-08T03:01:28;38.17;;;15.73;;
16510;SDS011;8368;48.772;8.754;2024-03-08T03:03:54;35.80;;;16.17;;
16510;SDS011;8368;48.772;8.754;2024-03-08T03:06:19;41.07;;;16.43;;
16510;SDS011;8368;48.772;8.754;2024-03-08T03:08:46;42.73;;;17.63;;
16510;SDS011;8368;48.772;8.754;2024-03-08T03:11:12;40.70;;;16.07;;
16510;SDS011;8368;48.772;8.754;2024-03-08T03:13:38;36.50;;;16.30;;
16510;SDS011;8368;48.772;8.754;2024-03-08T03:16:04;34.63;;;16.97;;
16510;SDS011;8368;48.772;8.754;2024-03-08T03:18:30;34.53;;;15.77;;
16510;SDS011;8368;48.772;8.754;2024-03-08T03:20:57;35.13;;;15.53;;
16510;SDS011;8368;48.772;8.754;2024-03-08T03:23:23;38.73;;;16.10;;
16510;SDS011;8368;48.772;8.754;2024-03-08T03:25:51;32.50;;;13.50;;
16510;SDS011;8368;48.772;8.754;2024-03-08T03:28:17;38.80;;;16.40;;
16510;SDS011;8368;48.772;8.754;2024-03-08T03:30:44;35.60;;;15.37;;
16510;SDS011;8368;48.772;8.754;2024-03-08T03:33:11;39.80;;;15.60;;
16510;SDS011;8368;48.772;8.754;2024-03-08T03:35:37;39.33;;;17.13;;
16510;SDS011;8368;48.772;8.754;2024-03-08T03:38:04;40.90;;;15.47;;
16510;SDS011;8368;48.772;8.754;2024-03-08T03:40:29;35.53;;;16.60;;
16510;SDS011;8368;48.772;8.754;2024-03-08T03:42:56;30.47;;;14.97;;
16510;SDS011;8368;48.772;8.754;2024-03-08T03:45:22;37.77;;;15.23;;
16510;SDS011;8368;48.772;8.754;2024-03-08T03:47:48;41.10;;;16.20;;
16510;SDS011;8368;48.772;8.754;2024-03-08T03:50:13;40.83;;;15.87;;
16510;SDS011;8368;48.772;8.754;2024-03-08T03:52:39;37.43;;;15.77;;
16510;SDS011;8368;48.772;8.754;2024-03-08T03:55:04;35.90;;;15.87;;
16510;SDS011;8368;48.772;8.754;2024-03-08T03:57:30;39.20;;;15.87;;
16510;SDS011;8368;48.772;8.754;2024-03-08T03:59:56;31.50;;;13.87;;
16510;SDS011;8368;48.772;8.754;2024-03-08T04:02:23;40.60;;;16.67;;
16510;SDS011;8368;48.772;8.754;2024-03-08T04:04:51;40.73;;;17.30;;
16510;SDS011;8368;48.772;8.754;2024-03-08T04:07:17;38.03;;;14.03;;
16510;SDS011;8368;48.772;8.754;2024-03-08T04:09:42;37.03;;;15.07;;
16510;SDS011;8368;48.772;8.754;2024-03-08T04:12:08;32.27;;;14.30;;
16510;SDS011;8368;48.772;8.754;2024-03-08T04:14:34;36.60;;;16.07;;
16510;SDS011;8368;48.772;8.754;2024-03-08T04:17:00;36.80;;;14.87;;
16510;SDS011;8368;48.772;8.754;2024-03-08T04:19:27;34.40;;;15.90;;
16510;SDS011;8368;48.772;8.754;2024-03-08T04:21:53;32.90;;;15.20;;
16510;SDS011;8368;48.772;8.754;2024-03-08T04:24:18;41.30;;;15.97;;
16510;SDS011;8368;48.772;8.754;2024-03-08T04:26:45;37.20;;;15.90;;
16510;SDS011;8368;48.772;8.754;2024-03-08T04:29:11;34.27;;;13.97;;
16510;SDS011;8368;48.772;8.754;2024-03-08T04:31:39;31.97;;;14.37;;
16510;SDS011;8368;48.772;8.754;2024-03-08T04:34:05;36.73;;;16.07;;
16510;SDS011;8368;48.772;8.754;2024-03-08T04:36:31;35.60;;;15.30;;
16510;SDS011;8368;48.772;8.754;2024-03-08T04:38:56;31.57;;;14.10;;
16510;SDS011;8368;48.772;8.754;2024-03-08T04:41:22;33.37;;;14.67;;
16510;SDS011;8368;48.772;8.754;2024-03-08T04:43:48;32.63;;;15.33;;
16510;SDS011;8368;48.772;8.754;2024-03-08T04:46:14;36.17;;;15.20;;
16510;SDS011;8368;48.772;8.754;2024-03-08T04:48:39;37.67;;;15.53;;
16510;SDS011;8368;48.772;8.754;2024-03-08T04:51:07;41.93;;;15.27;;
16510;SDS011;8368;48.772;8.754;2024-03-08T04:53:33;35.87;;;15.23;;
16510;SDS011;8368;48.772;8.754;2024-03-08T04:55:59;32.10;;;14.03;;
16510;SDS011;8368;48.772;8.754;2024-03-08T04:58:25;34.17;;;15.30;;
16510;SDS011;8368;48.772;8.754;2024-03-08T05:00:50;34.30;;;15.00;;
16510;SDS011;8368;48.772;8.754;2024-03-08T05:03:16;37.73;;;15.10;;
16510;SDS011;8368;48.772;8.754;2024-03-08T05:05:41;36.07;;;16.17;;
16510;SDS011;8368;48.772;8.754;2024-03-08T05:08:07;33.67;;;14.53;;
16510;SDS011;8368;48.772;8.754;2024-03-08T05:10:32;34.03;;;15.17;;
16510;SDS011;8368;48.772;8.754;2024-03-08T05:12:58;35.53;;;16.00;;
16510;SDS011;8368;48.772;8.754;2024-03-08T05:15:23;40.43;;;17.57;;
16510;SDS011;8368;48.772;8.754;2024-03-08T05:17:49;45.27;;;17.67;;
16510;SDS011;8368;48.772;8.754;2024-03-08T05:20:15;47.57;;;17.87;;
16510;SDS011;8368;48.772;8.754;2024-03-08T05:22:42;41.43;;;16.97;;
16510;SDS011;8368;48.772;8.754;2024-03-08T05:25:08;41.17;;;16.67;;
16510;SDS011;8368;48.772;8.754;2024-03-08T05:27:34;33.93;;;14.60;;
16510;SDS011;8368;48.772;8.754;2024-03-08T05:30:01;35.87;;;15.87;;
16510;SDS011;8368;48.772;8.754;2024-03-08T05:32:29;37.83;;;16.10;;
16510;SDS011;8368;48.772;8.754;2024-03-08T05:34:54;44.87;;;17.77;;
16510;SDS011;8368;48.772;8.754;2024-03-08T05:37:20;40.67;;;17.13;;
16510;SDS011;8368;48.772;8.754;2024-03-08T05:39:45;33.77;;;15.77;;
16510;SDS011;8368;48.772;8.754;2024-03-08T05:42:11;42.97;;;17.13;;
16510;SDS011;8368;48.772;8.754;2024-03-08T05:44:36;38.67;;;15.40;;
16510;SDS011;8368;48.772;8.754;2024-03-08T05:47:02;33.47;;;14.87;;
16510;SDS011;8368;48.772;8.754;2024-03-08T05:49:27;38.90;;;15.13;;
16510;SDS011;8368;48.772;8.754;2024-03-08T05:51:53;35.40;;;16.40;;
16510;SDS011;8368;48.772;8.754;2024-03-08T05:54:19;38.10;;;16.53;;
16510;SDS011;8368;48.772;8.754;2024-03-08T05:56:47;40.00;;;16.60;;
16510;SDS011;8368;48.772;8.754;2024-03-08T05:59:12;30.67;;;15.13;;
16510;SDS011;8368;48.772;8.754;2024-03-08T06:01:38;32.90;;;14.90;;
16510;SDS011;8368;48.772;8.754;2024-03-08T06:04:05;33.00;;;15.83;;
16510;SDS011;8368;48.772;8.754;2024-03-08T06:06:32;37.30;;;15.50;;
16510;SDS011;8368;48.772;8.754;2024-03-08T06:08:58;37.83;;;15.67;;
16510;SDS011;8368;48.772;8.754;2024-03-08T06:11:24;36.43;;;16.47;;
16510;SDS011;8368;48.772;8.754;2024-03-08T06:13:52;35.53;;;14.90;;
16510;SDS011;8368;48.772;8.754;2024-03-08T06:16:24;38.37;;;15.87;;
16510;SDS011;8368;48.772;8.754;2024-03-08T06:18:53;38.30;;;15.73;;
16510;SDS011;8368;48.772;8.754;2024-03-08T06:21:20;38.47;;;15.10;;
16510;SDS011;8368;48.772;8.754;2024-03-08T06:23:47;37.60;;;16.73;;
16510;SDS011;8368;48.772;8.754;2024-03-08T06:26:13;35.77;;;14.87;;
16510;SDS011;8368;48.772;8.754;2024-03-08T06:28:38;38.37;;;15.23;;
16510;SDS011;8368;48.772;8.754;2024-03-08T06:31:04;37.23;;;15.30;;
16510;SDS011;8368;48.772;8.754;2024-03-08T06:33:29;37.53;;;15.53;;
16510;SDS011;8368;48.772;8.754;2024-03-08T06:35:57;35.90;;;15.60;;
16510;SDS011;8368;48.772;8.754;2024-03-08T06:38:26;37.77;;;16.43;;
16510;SDS011;8368;48.772;8.754;2024-03-08T06:40:52;43.37;;;15.90;;
16510;SDS011;8368;48.772;8.754;2024-03-08T06:43:19;44.77;;;16.63;;
16510;SDS011;8368;48.772;8.754;2024-03-08T06:45:45;44.80;;;17.70;;
16510;SDS011;8368;48.772;8.754;2024-03-08T06:48:14;40.07;;;16.93;;
16510;SDS011;8368;48.772;8.754;2024-03-08T06:50:43;34.50;;;17.53;;
16510;SDS011;8368;48.772;8.754;2024-03-08T06:53:10;37.27;;;16.03;;
16510;SDS011;8368;48.772;8.754;2024-03-08T06:55:36;41.63;;;19.43;;
16510;SDS011;8368;48.772;8.754;2024-03-08T06:58:01;47.77;;;18.97;;
16510;SDS011;8368;48.772;8.754;2024-03-08T07:00:27;41.70;;;20.07;;
16510;SDS011;8368;48.772;8.754;2024-03-08T07:02:55;35.70;;;19.63;;
16510;SDS011;8368;48.772;8.754;2024-03-08T07:05:22;41.70;;;18.30;;
16510;SDS011;8368;48.772;8.754;2024-03-08T07:07:49;35.07;;;16.90;;
16510;SDS011;8368;48.772;8.754;2024-03-08T07:10:16;33.87;;;16.27;;
16510;SDS011;8368;48.772;8.754;2024-03-08T07:12:41;33.43;;;15.93;;
16510;SDS011;8368;48.772;8.754;2024-03-08T07:15:07;34.70;;;16.37;;
16510;SDS011;8368;48.772;8.754;2024-03-08T07:17:38;34.50;;;15.87;;
16510;SDS011;8368;48.772;8.754;2024-03-08T07:20:04;34.80;;;15.50;;
16510;SDS011;8368;48.772;8.754;2024-03-08T07:22:35;32.20;;;14.80;;
16510;SDS011;8368;48.772;8.754;2024-03-08T07:25:02;35.77;;;15.17;;
16510;SDS011;8368;48.772;8.754;2024-03-08T07:27:33;32.77;;;15.70;;
16510;SDS011;8368;48.772;8.754;2024-03-08T07:30:02;33.27;;;15.50;;
16510;SDS011;8368;48.772;8.754;2024-03-08T07:32:28;39.50;;;15.53;;
16510;SDS011;8368;48.772;8.754;2024-03-08T07:34:55;31.10;;;15.47;;
16510;SDS011;8368;48.772;8.754;2024-03-08T07:37:21;33.40;;;15.30;;
16510;SDS011;8368;48.772;8.754;2024-03-08T07:39:46;28.77;;;14.27;;
16510;SDS011;8368;48.772;8.754;2024-03-08T07:42:12;28.40;;;14.97;;
16510;SDS011;8368;48.772;8.754;2024-03-08T07:44:38;34.47;;;15.70;;
16510;SDS011;8368;48.772;8.754;2024-03-08T07:47:04;28.53;;;13.70;;
16510;SDS011;8368;48.772;8.754;2024-03-08T07:49:30;28.30;;;13.87;;
16510;SDS011;8368;48.772;8.754;2024-03-08T07:51:58;27.97;;;15.03;;
16510;SDS011;8368;48.772;8.754;2024-03-08T07:54:24;31.23;;;14.33;;
16510;SDS011;8368;48.772;8.754;2024-03-08T07:56:51;28.87;;;14.30;;
16510;SDS011;8368;48.772;8.754;2024-03-08T07:59:17;31.00;;;14.37;;
16510;SDS011;8368;48.772;8.754;2024-03-08T08:01:43;28.37;;;14.03;;
16510;SDS011;8368;48.772;8.754;2024-03-08T08:04:09;30.00;;;13.87;;
16510;SDS011;8368;48.772;8.754;2024-03-08T08:06:37;30.53;;;13.57;;
16510;SDS011;8368;48.772;8.754;2024-03-08T08:09:06;23.43;;;13.43;;
16510;SDS011;8368;48.772;8.754;2024-03-08T08:11:39;28.27;;;13.37;;
16510;SDS011;8368;48.772;8.754;2024-03-08T08:14:10;25.87;;;12.93;;
16510;SDS011;8368;48.772;8.754;2024-03-08T08:16:36;28.50;;;14.10;;
16510;SDS011;8368;48.772;8.754;2024-03-08T08:19:02;26.87;;;13.87;;
16510;SDS011;8368;48.772;8.754;2024-03-08T08:21:33;25.13;;;12.93;;
16510;SDS011;8368;48.772;8.754;2024-03-08T08:23:59;33.57;;;13.53;;
16510;SDS011;8368;48.772;8.754;2024-03-08T08:26:25;29.97;;;15.20;;
16510;SDS011;8368;48.772;8.754;2024-03-08T08:28:51;27.47;;;13.87;;
16510;SDS011;8368;48.772;8.754;2024-03-08T08:31:18;31.33;;;15.07;;
16510;SDS011;8368;48.772;8.754;2024-03-08T08:33:44;31.03;;;13.83;;
16510;SDS011;8368;48.772;8.754;2024-03-08T08:36:09;25.70;;;13.13;;
16510;SDS011;8368;48.772;8.754;2024-03-08T08:38:35;23.70;;;12.70;;
16510;SDS011;8368;48.772;8.754;2024-03-08T08:41:01;26.23;;;13.67;;
16510;SDS011;8368;48.772;8.754;2024-03-08T08:43:27;26.03;;;13.57;;
16510;SDS011;8368;48.772;8.754;2024-03-08T08:45:53;27.53;;;13.27;;
16510;SDS011;8368;48.772;8.754;2024-03-08T08:48:20;26.20;;;13.77;;
16510;SDS011;8368;48.772;8.754;2024-03-08T08:53:15;26.23;;;13.73;;
16510;SDS011;8368;48.772;8.754;2024-03-08T08:55:42;25.43;;;12.37;;
16510;SDS011;8368;48.772;8.754;2024-03-08T08:58:07;29.43;;;13.87;;
16510;SDS011;8368;48.772;8.754;2024-03-08T09:00:33;25.10;;;13.63;;
16510;SDS011;8368;48.772;8.754;2024-03-08T09:02:59;25.50;;;14.23;;
16510;SDS011;8368;48.772;8.754;2024-03-08T09:05:25;27.67;;;14.57;;
16510;SDS011;8368;48.772;8.754;2024-03-08T09:07:51;23.83;;;13.87;;
16510;SDS011;8368;48.772;8.754;2024-03-08T09:10:17;24.77;;;13.63;;
16510;SDS011;8368;48.772;8.754;2024-03-08T09:12:43;23.97;;;12.30;;
16510;SDS011;8368;48.772;8.754;2024-03-08T09:15:09;23.67;;;13.47;;
16510;SDS011;8368;48.772;8.754;2024-03-08T09:17:38;24.70;;;13.53;;
16510;SDS011;8368;48.772;8.754;2024-03-08T09:20:06;23.73;;;12.63;;
16510;SDS011;8368;48.772;8.754;2024-03-08T09:22:33;26.87;;;13.67;;
16510;SDS011;8368;48.772;8.754;2024-03-08T09:24:59;25.93;;;13.10;;
16510;SDS011;8368;48.772;8.754;2024-03-08T09:27:25;27.40;;;13.87;;
16510;SDS011;8368;48.772;8.754;2024-03-08T09:29:50;31.60;;;13.00;;
16510;SDS011;8368;48.772;8.754;2024-03-08T09:32:16;22.77;;;12.50;;
16510;SDS011;8368;48.772;8.754;2024-03-08T09:34:42;25.60;;;13.10;;
16510;SDS011;8368;48.772;8.754;2024-03-08T09:37:07;27.70;;;13.73;;
16510;SDS011;8368;48.772;8.754;2024-03-08T09:39:34;23.20;;;12.63;;
16510;SDS011;8368;48.772;8.754;2024-03-08T09:42:00;21.27;;;11.70;;
16510;SDS011;8368;48.772;8.754;2024-03-08T09:44:26;22.33;;;12.00;;
16510;SDS011;8368;48.772;8.754;2024-03-08T09:46:53;24.97;;;12.73;;
16510;SDS011;8368;48.772;8.754;2024-03-08T09:49:20;23.07;;;11.57;;
16510;SDS011;8368;48.772;8.754;2024-03-08T09:51:45;22.13;;;12.20;;
16510;SDS011;8368;48.772;8.754;2024-03-08T09:54:12;23.63;;;12.97;;
16510;SDS011;8368;48.772;8.754;2024-03-08T09:56:38;26.23;;;12.53;;
16510;SDS011;8368;48.772;8.754;2024-03-08T09:59:06;24.60;;;12.77;;
16510;SDS011;8368;48.772;8.754;2024-03-08T10:01:50;26.13;;;13.33;;
16510;SDS011;8368;48.772;8.754;2024-03-08T10:04:17;21.77;;;12.67;;
16510;SDS011;8368;48.772;8.754;2024-03-08T10:06:43;22.67;;;13.10;;
16510;SDS011;8368;48.772;8.754;2024-03-08T10:09:12;21.07;;;12.53;;
16510;SDS011;8368;48.772;8.754;2024-03-08T10:11:38;23.23;;;12.67;;
16510;SDS011;8368;48.772;8.754;2024-03-08T10:14:05;21.13;;;12.40;;
16510;SDS011;8368;48.772;8.754;2024-03-08T10:16:32;20.30;;;12.00;;
16510;SDS011;8368;48.772;8.754;2024-03-08T10:18:59;24.50;;;13.03;;
16510;SDS011;8368;48.772;8.754;2024-03-08T10:21:25;24.30;;;12.73;;
16510;SDS011;8368;48.772;8.754;2024-03-08T10:23:51;27.07;;;13.63;;
16510;SDS011;8368;48.772;8.754;2024-03-08T10:26:16;22.70;;;12.37;;
16510;SDS011;8368;48.772;8.754;2024-03-08T10:28:44;22.63;;;12.20;;
16510;SDS011;8368;48.772;8.754;2024-03-08T10:31:12;25.40;;;12.67;;
16510;SDS011;8368;48.772;8.754;2024-03-08T10:33:40;25.00;;;12.67;;
16510;SDS011;8368;48.772;8.754;2024-03-08T10:36:06;22.33;;;12.20;;
16510;SDS011;8368;48.772;8.754;2024-03-08T10:38:35;21.80;;;12.37;;
16510;SDS011;8368;48.772;8.754;2024-03-08T10:41:01;21.53;;;12.30;;
16510;SDS011;8368;48.772;8.754;2024-03-08T10:43:31;22.23;;;12.30;;
16510;SDS011;8368;48.772;8.754;2024-03-08T10:48:53;21.83;;;12.00;;
16510;SDS011;8368;48.772;8.754;2024-03-08T10:51:23;21.03;;;11.93;;
16510;SDS011;8368;48.772;8.754;2024-03-08T10:53:50;21.57;;;12.23;;
16510;SDS011;8368;48.772;8.754;2024-03-08T10:56:19;24.20;;;12.87;;
16510;SDS011;8368;48.772;8.754;2024-03-08T10:58:45;20.73;;;12.17;;
16510;SDS011;8368;48.772;8.754;2024-03-08T11:01:12;22.30;;;12.63;;
16510;SDS011;8368;48.772;8.754;2024-03-08T11:09:03;20.77;;;11.70;;
16510;SDS011;8368;48.772;8.754;2024-03-08T11:11:42;22.00;;;12.10;;
16510;SDS011;8368;48.772;8.754;2024-03-08T11:14:09;24.47;;;13.03;;
16510;SDS011;8368;48.772;8.754;2024-03-08T11:17:09;20.57;;;11.47;;
16510;SDS011;8368;48.772;8.754;2024-03-08T11:19:34;23.90;;;12.47;;
16510;SDS011;8368;48.772;8.754;2024-03-08T11:22:00;17.93;;;11.60;;
16510;SDS011;8368;48.772;8.754;2024-03-08T11:24:27;22.90;;;12.53;;
16510;SDS011;8368;48.772;8.754;2024-03-08T11:27:01;23.60;;;12.67;;
16510;SDS011;8368;48.772;8.754;2024-03-08T11:34:46;20.97;;;11.17;;
16510;SDS011;8368;48.772;8.754;2024-03-08T11:37:17;20.10;;;12.50;;
16510;SDS011;8368;48.772;8.754;2024-03-08T11:39:46;20.53;;;12.03;;
16510;SDS011;8368;48.772;8.754;2024-03-08T11:42:16;21.13;;;11.97;;
16510;SDS011;8368;48.772;8.754;2024-03-08T11:44:43;19.77;;;11.13;;
16510;SDS011;8368;48.772;8.754;2024-03-08T11:47:09;22.07;;;11.07;;
16510;SDS011;8368;48.772;8.754;2024-03-08T11:49:36;18.53;;;11.20;;
16510;SDS011;8368;48.772;8.754;2024-03-08T11:52:02;19.63;;;11.20;;
16510;SDS011;8368;48.772;8.754;2024-03-08T11:54:29;18.90;;;11.40;;
16510;SDS011;8368;48.772;8.754;2024-03-08T11:56:55;17.33;;;11.17;;
16510;SDS011;8368;48.772;8.754;2024-03-08T11:59:25;22.17;;;12.67;;
16510;SDS011;8368;48.772;8.754;2024-03-08T12:01:59;19.63;;;11.20;;
16510;SDS011;8368;48.772;8.754;2024-03-08T12:04:26;21.70;;;12.37;;
16510;SDS011;8368;48.772;8.754;2024-03-08T12:06:52;21.50;;;11.47;;
16510;SDS011;8368;48.772;8.754;2024-03-08T12:09:18;21.03;;;11.70;;
16510;SDS011;8368;48.772;8.754;2024-03-08T12:11:46;18.43;;;11.17;;
16510;SDS011;8368;48.772;8.754;2024-03-08T12:14:13;19.03;;;11.50;;
16510;SDS011;8368;48.772;8.754;2024-03-08T12:16:38;17.70;;;10.73;;
16510;SDS011;8368;48.772;8.754;2024-03-08T12:19:04;20.67;;;11.57;;
16510;SDS011;8368;48.772;8.754;2024-03-08T12:21:31;17.63;;;10.90;;
16510;SDS011;8368;48.772;8.754;2024-03-08T12:24:04;16.00;;;10.23;;
16510;SDS011;8368;48.772;8.754;2024-03-08T12:26:34;18.40;;;11.13;;
16510;SDS011;8368;48.772;8.754;2024-03-08T12:29:14;15.43;;;10.37;;
16510;SDS011;8368;48.772;8.754;2024-03-08T12:31:45;18.10;;;10.43;;
16510;SDS011;8368;48.772;8.754;2024-03-08T12:34:13;21.10;;;11.80;;
16510;SDS011;8368;48.772;8.754;2024-03-08T12:36:48;18.90;;;11.73;;
16510;SDS011;8368;48.772;8.754;2024-03-08T12:39:17;17.53;;;10.77;;
16510;SDS011;8368;48.772;8.754;2024-03-08T12:42:02;17.07;;;10.20;;
16510;SDS011;8368;48.772;8.754;2024-03-08T12:44:28;18.13;;;10.87;;
16510;SDS011;8368;48.772;8.754;2024-03-08T12:46:54;16.70;;;11.13;;
16510;SDS011;8368;48.772;8.754;2024-03-08T12:49:20;18.60;;;12.03;;
16510;SDS011;8368;48.772;8.754;2024-03-08T12:51:49;18.83;;;11.50;;
16510;SDS011;8368;48.772;8.754;2024-03-08T12:54:14;17.13;;;10.23;;
16510;SDS011;8368;48.772;8.754;2024-03-08T12:56:40;17.50;;;11.07;;
16510;SDS011;8368;48.772;8.754;2024-03-08T12:59:06;15.90;;;10.47;;
16510;SDS011;8368;48.772;8.754;2024-03-08T13:01:33;16.83;;;10.70;;
16510;SDS011;8368;48.772;8.754;2024-03-08T13:03:59;20.53;;;10.90;;
16510;SDS011;8368;48.772;8.754;2024-03-08T13:06:28;17.57;;;10.47;;
16510;SDS011;8368;48.772;8.754;2024-03-08T13:08:54;17.77;;;11.40;;
16510;SDS011;8368;48.772;8.754;2024-03-08T13:11:20;16.87;;;10.40;;
16510;SDS011;8368;48.772;8.754;2024-03-08T13:13:47;15.57;;;9.40;;
16510;SDS011;8368;48.772;8.754;2024-03-08T13:16:12;16.53;;;10.50;;
16510;SDS011;8368;48.772;8.754;2024-03-08T13:18:42;17.60;;;11.10;;
16510;SDS011;8368;48.772;8.754;2024-03-08T13:21:08;17.10;;;10.73;;
16510;SDS011;8368;48.772;8.754;2024-03-08T13:23:35;17.63;;;11.30;;
16510;SDS011;8368;48.772;8.754;2024-03-08T13:26:08;18.43;;;11.13;;
16510;SDS011;8368;48.772;8.754;2024-03-08T13:28:40;17.73;;;11.10;;
16510;SDS011;8368;48.772;8.754;2024-03-08T13:31:08;15.17;;;10.07;;
16510;SDS011;8368;48.772;8.754;2024-03-08T13:33:35;19.70;;;11.37;;
16510;SDS011;8368;48.772;8.754;2024-03-08T13:36:05;18.30;;;10.60;;
16510;SDS011;8368;48.772;8.754;2024-03-08T13:38:34;17.87;;;10.10;;
16510;SDS011;8368;48.772;8.754;2024-03-08T13:41:01;16.30;;;9.97;;
16510;SDS011;8368;48.772;8.754;2024-03-08T13:43:28;17.00;;;10.63;;
16510;SDS011;8368;48.772;8.754;2024-03-08T13:45:53;15.03;;;9.80;;
16510;SDS011;8368;48.772;8.754;2024-03-08T13:48:19;17.40;;;11.03;;
16510;SDS011;8368;48.772;8.754;2024-03-08T13:50:47;18.20;;;10.03;;
16510;SDS011;8368;48.772;8.754;2024-03-08T13:53:13;16.47;;;10.27;;
16510;SDS011;8368;48.772;8.754;2024-03-08T13:55:40;14.00;;;10.03;;
16510;SDS011;8368;48.772;8.754;2024-03-08T13:58:05;13.93;;;9.97;;
16510;SDS011;8368;48.772;8.754;2024-03-08T14:00:34;19.90;;;11.27;;
16510;SDS011;8368;48.772;8.754;2024-03-08T14:03:01;15.27;;;10.20;;
16510;SDS011;8368;48.772;8.754;2024-03-08T14:05:30;14.90;;;10.23;;
16510;SDS011;8368;48.772;8.754;2024-03-08T14:07:59;14.53;;;10.50;;
16510;SDS011;8368;48.772;8.754;2024-03-08T14:10:28;16.57;;;11.13;;
16510;SDS011;8368;48.772;8.754;2024-03-08T14:12:56;17.43;;;10.63;;
16510;SDS011;8368;48.772;8.754;2024-03-08T14:15:22;15.27;;;10.43;;
16510;SDS011;8368;48.772;8.754;2024-03-08T14:17:56;17.03;;;10.73;;
16510;SDS011;8368;48.772;8.754;2024-03-08T14:20:22;18.00;;;11.53;;
16510;SDS011;8368;48.772;8.754;2024-03-08T14:22:54;18.30;;;11.80;;
16510;SDS011;8368;48.772;8.754;2024-03-08T14:25:20;16.43;;;10.63;;
16510;SDS011;8368;48.772;8.754;2024-03-08T14:27:48;15.93;;;10.83;;
16510;SDS011;8368;48.772;8.754;2024-03-08T14:30:15;20.03;;;12.17;;
16510;SDS011;8368;48.772;8.754;2024-03-08T14:33:07;19.93;;;11.87;;
16510;SDS011;8368;48.772;8.754;2024-03-08T14:35:36;18.37;;;11.13;;
16510;SDS011;8368;48.772;8.754;2024-03-08T14:38:02;20.00;;;12.00;;
16510;SDS011;8368;48.772;8.754;2024-03-08T14:40:28;21.27;;;12.33;;
16510;SDS011;8368;48.772;8.754;2024-03-08T14:42:55;20.07;;;12.53;;
16510;SDS011;8368;48.772;8.754;2024-03-08T14:45:21;21.00;;;12.37;;
16510;SDS011;8368;48.772;8.754;2024-03-08T14:47:48;17.77;;;11.23;;
16510;SDS011;8368;48.772;8.754;2024-03-08T14:50:18;19.50;;;11.33;;